createdAt,value
2023-11-15T00:01:12.852Z,98983.22
2023-11-15T00:03:39.579Z,98992.28
2023-11-15T00:06:06.657Z,98997.56
2023-11-15T00:08:33.920Z,98985.28
2023-11-15T00:11:02.110Z,98988.78
2023-11-15T00:13:28.961Z,98999.59
2023-11-15T00:15:55.538Z,98997.16
2023-11-15T00:18:22.380Z,99006.91
2023-11-15T00:20:49.211Z,99005.19
2023-11-15T00:23:15.779Z,99001.69
2023-11-15T00:25:42.443Z,99010.41
2023-11-15T00:28:10.273Z,99010.59
2023-11-15T00:30:36.914Z,99010.59
2023-11-15T00:33:03.510Z,99020.53
2023-11-15T00:35:30.224Z,99024.91
2023-11-15T00:37:56.845Z,99028.47
2023-11-15T00:40:23.420Z,99029.63
2023-11-15T00:42:50.318Z,99034.94
2023-11-15T00:45:18.547Z,99033.97
2023-11-15T00:47:45.223Z,99046.06
2023-11-15T00:50:12.868Z,99051.56
2023-11-15T00:52:39.429Z,99050.69
2023-11-15T00:55:07.097Z,99053.28
2023-11-15T00:57:33.709Z,99060.59
2023-11-15T01:00:00.347Z,99054.72
2023-11-15T01:02:29.073Z,99059.25
2023-11-15T01:04:55.872Z,99077.84
2023-11-15T01:07:22.385Z,99082.41
2023-11-15T01:09:48.927Z,99088.13
2023-11-15T01:12:15.587Z,99088.97
2023-11-15T01:14:42.177Z,99099.78
2023-11-15T01:17:08.805Z,99095.88
2023-11-15T01:19:36.784Z,99117.91
2023-11-15T01:22:03.533Z,99121.88
2023-11-15T01:24:30.086Z,99130.97
2023-11-15T01:26:56.624Z,99131.41
2023-11-15T01:29:23.230Z,99144.78
2023-11-15T01:31:49.735Z,99146.59
2023-11-15T01:34:16.290Z,99144.09
2023-11-15T01:36:45.535Z,99168.13
2023-11-15T01:39:12.157Z,99174.50
2023-11-15T01:41:38.761Z,99167.25
2023-11-15T01:44:05.853Z,99180.91
2023-11-15T01:46:32.610Z,99171.38
2023-11-15T01:48:59.168Z,99181.94
2023-11-15T01:51:25.885Z,99183.03
2023-11-15T01:53:53.808Z,99192.09
2023-11-15T01:56:20.360Z,99204.53
2023-11-15T01:58:46.891Z,99205.63
2023-11-15T02:01:16.684Z,99206.41
2023-11-15T02:03:44.023Z,99210.94
2023-11-15T02:06:11.269Z,99217.16
2023-11-15T02:08:37.872Z,99214.53
2023-11-15T02:11:06.219Z,99226.13
2023-11-15T02:13:32.929Z,99230.75
2023-11-15T02:15:59.574Z,99225.34
2023-11-15T02:18:26.854Z,99231.66
2023-11-15T02:20:53.595Z,99237.88
2023-11-15T02:23:21.441Z,99239.78
2023-11-15T02:25:49.530Z,99239.13
2023-11-15T02:28:16.035Z,99241.69
2023-11-15T02:30:42.547Z,99253.53
2023-11-15T02:33:09.157Z,99258.78
2023-11-15T02:35:35.646Z,99262.28
2023-11-15T02:38:02.146Z,99267.75
2023-11-15T02:40:28.608Z,99266.97
2023-11-15T02:42:56.413Z,99288.56
2023-11-15T02:45:23.107Z,99287.69
2023-11-15T02:47:49.652Z,99291.28
2023-11-15T02:50:16.499Z,99299.38
2023-11-15T02:52:42.944Z,99299.38
2023-11-15T02:55:09.997Z,99304.91
2023-11-15T02:57:36.537Z,99313.81
2023-11-15T03:00:05.660Z,99313.81
2023-11-15T03:02:32.237Z,99319.31
2023-11-15T03:04:58.781Z,99323.81
2023-11-15T03:07:25.252Z,99330.19
2023-11-15T03:09:51.790Z,99329.22
2023-11-15T03:12:18.321Z,99329.38
2023-11-15T03:14:44.918Z,99339.22
2023-11-15T03:17:17.019Z,99332.09
2023-11-15T03:19:43.853Z,99337.50
2023-11-15T03:22:10.557Z,99350.03
2023-11-15T03:24:37.118Z,99347.50
2023-11-15T03:27:03.727Z,99352.69
2023-11-15T03:29:31.905Z,99364.44
2023-11-15T03:31:58.558Z,99373.41
2023-11-15T03:34:26.507Z,99372.41
2023-11-15T03:36:53.010Z,99385.84
2023-11-15T03:39:19.521Z,99386.66
2023-11-15T03:41:46.071Z,99396.50
2023-11-15T03:44:12.754Z,99397.47
2023-11-15T03:46:39.311Z,99402.94
2023-11-15T03:49:05.865Z,99407.31
2023-11-15T03:51:33.776Z,99418.13
2023-11-15T03:54:00.286Z,99425.28
2023-11-15T03:56:26.991Z,99429.69
2023-11-15T03:58:53.504Z,99434.22
2023-11-15T04:01:19.960Z,99441.50
2023-11-15T04:03:46.798Z,99447.81
2023-11-15T04:06:13.565Z,99446.91
2023-11-15T04:08:41.458Z,99454.06
2023-11-15T04:11:09.930Z,99456.75
2023-11-15T04:13:36.490Z,99448.66
2023-11-15T04:16:03.551Z,99460.28
2023-11-15T04:18:30.182Z,99462.03
2023-11-15T04:20:56.744Z,99468.38
2023-11-15T04:23:23.348Z,99461.25
2023-11-15T04:25:51.192Z,99465.59
2023-11-15T04:28:17.652Z,99466.66
2023-11-15T04:30:44.196Z,99452.31
2023-11-15T04:33:12.458Z,99461.34
2023-11-15T04:35:40.056Z,99462.31
2023-11-15T04:38:09.030Z,99467.78
2023-11-15T04:40:35.577Z,99467.03
2023-11-15T04:43:03.692Z,99493.13
2023-11-15T04:45:30.172Z,99490.75
2023-11-15T04:47:57.070Z,99494.31
2023-11-15T04:50:23.599Z,99505.13
2023-11-15T04:52:50.138Z,99506.16
2023-11-15T04:55:16.767Z,99510.50
2023-11-15T04:57:43.384Z,99507.81
2023-11-15T05:00:12.954Z,99511.66
2023-11-15T05:02:39.604Z,99520.59
2023-11-15T05:05:06.539Z,99521.47
2023-11-15T05:07:33.145Z,99527.84
2023-11-15T05:09:59.726Z,99526.06
2023-11-15T05:12:26.562Z,99538.56
2023-11-15T05:14:53.156Z,99541.19
2023-11-15T05:17:21.035Z,99545.63
2023-11-15T05:19:47.554Z,99560.78
2023-11-15T05:22:14.039Z,99564.38
2023-11-15T05:24:41.416Z,99570.50
2023-11-15T05:27:08.746Z,99578.25
2023-11-15T05:29:35.587Z,99586.28
2023-11-15T05:32:05.389Z,99589.88
2023-11-15T05:34:33.503Z,99588.03
2023-11-15T05:37:00.283Z,99595.31
2023-11-15T05:39:26.790Z,99589.91
2023-11-15T05:41:53.722Z,99599.06
2023-11-15T05:44:20.366Z,99607.16
2023-11-15T05:46:46.945Z,99615.34
2023-11-15T05:49:13.737Z,99623.63
2023-11-15T05:54:34.569Z,99633.47
2023-11-15T05:57:01.140Z,99644.19
2023-11-15T05:59:27.957Z,99633.38
2023-11-15T06:01:54.617Z,99640.41
2023-11-15T06:04:21.467Z,99648.53
2023-11-15T06:06:49.311Z,99655.81
2023-11-15T06:09:16.016Z,99654.03
2023-11-15T06:11:42.656Z,99664.00
2023-11-15T06:14:09.251Z,99663.09
2023-11-15T06:16:36.963Z,99663.91
2023-11-15T06:19:07.808Z,99677.28
2023-11-15T06:21:34.522Z,99670.97
2023-11-15T06:24:03.040Z,99670.22
2023-11-15T06:26:35.562Z,99677.50
2023-11-15T06:29:02.194Z,99702.44
2023-11-15T06:31:28.703Z,99693.66
2023-11-15T06:33:57.547Z,99686.59
2023-11-15T06:36:24.614Z,99706.09
2023-11-15T06:38:51.384Z,99707.84
2023-11-15T06:41:19.489Z,99719.53
2023-11-15T06:43:46.037Z,99715.13
2023-11-15T06:46:18.836Z,99725.00
2023-11-15T06:48:45.715Z,99725.19
2023-11-15T06:51:12.474Z,99727.97
2023-11-15T06:53:39.045Z,99740.41
2023-11-15T06:56:06.244Z,99738.78
2023-11-15T06:58:34.163Z,99734.50
2023-11-15T07:01:00.710Z,99754.03
2023-11-15T07:03:27.601Z,99757.56
2023-11-15T07:05:54.281Z,99760.25
2023-11-15T07:08:20.921Z,99762.78
2023-11-15T07:10:49.932Z,99767.44
2023-11-15T07:13:16.848Z,99777.28
2023-11-15T07:15:44.880Z,99783.53
2023-11-15T07:18:11.560Z,99781.63
2023-11-15T07:20:42.091Z,99780.06
2023-11-15T07:23:08.787Z,99791.38
2023-11-15T07:25:35.668Z,99798.50
2023-11-15T07:28:03.528Z,99794.97
2023-11-15T07:30:35.907Z,99810.22
2023-11-15T07:33:06.461Z,99821.03
2023-11-15T07:35:33.704Z,99825.47
2023-11-15T07:38:03.790Z,99817.44
2023-11-15T07:40:31.979Z,99829.00
2023-11-15T07:42:58.700Z,99827.34
2023-11-15T07:45:25.459Z,99840.50
2023-11-15T07:47:52.801Z,99846.72
2023-11-15T07:50:21.218Z,99845.28
2023-11-15T07:52:48.022Z,99851.31
2023-11-15T07:55:14.876Z,99851.22
2023-11-15T07:57:42.344Z,99853.41
2023-11-15T08:00:10.343Z,99846.19
2023-11-15T08:02:46.089Z,99860.50
2023-11-15T08:05:27.472Z,99856.09
2023-11-15T08:07:54.691Z,99860.84
2023-11-15T08:10:23.316Z,99854.69
2023-11-15T08:12:53.326Z,99874.19
2023-11-15T08:15:33.883Z,99869.91
2023-11-15T08:18:06.814Z,99866.53
2023-11-15T08:20:37.392Z,99886.13
2023-11-15T08:23:05.498Z,99877.19
2023-11-15T08:25:34.425Z,99881.13
2023-11-15T08:28:03.034Z,99876.38
2023-11-15T08:30:29.888Z,99888.84
2023-11-15T08:33:01.430Z,99895.53
2023-11-15T08:35:28.164Z,99885.63
2023-11-15T08:37:57.469Z,99890.78
2023-11-15T08:40:34.261Z,99895.41
2023-11-15T08:43:11.454Z,99884.31
2023-11-15T08:45:47.914Z,99885.06
2023-11-15T08:48:21.165Z,99879.66
2023-11-15T08:50:53.526Z,99885.16
2023-11-15T08:53:21.869Z,99901.00
2023-11-15T08:55:53.588Z,99905.41
2023-11-15T08:58:22.913Z,99907.97
2023-11-15T09:00:49.627Z,99919.84
2023-11-15T09:03:19.730Z,99916.22
2023-11-15T09:05:54.422Z,99924.44
2023-11-15T09:08:25.155Z,99921.13
2023-11-15T09:10:53.727Z,99924.34
2023-11-15T09:13:21.476Z,99935.25
2023-11-15T09:15:54.585Z,99925.41
2023-11-15T09:18:26.259Z,99928.09
2023-11-15T09:20:56.081Z,99934.34
2023-11-15T09:52:53.406Z,99984.53
2023-11-15T10:08:54.624Z,100003.19
2023-11-15T10:14:51.418Z,99995.16
2023-11-15T10:23:53.435Z,100012.13
2023-11-15T10:26:45.249Z,100014.91
2023-11-15T10:32:21.710Z,100019.19
2023-11-15T10:34:50.827Z,100024.13
2023-11-15T10:37:17.339Z,100014.97
2023-11-15T10:39:43.900Z,100022.84
2023-11-15T10:42:11.423Z,100010.53
2023-11-15T10:44:40.541Z,100016.75
2023-11-15T10:47:08.081Z,100025.91
2023-11-15T10:49:38.572Z,100021.44
2023-11-15T10:52:07.326Z,100025.31
2023-11-15T10:54:34.765Z,100024.13
2023-11-15T10:57:02.016Z,100028.56
2023-11-15T10:59:36.951Z,100024.03
2023-11-15T11:02:05.853Z,100032.09
2023-11-15T11:04:33.455Z,100027.78
2023-11-15T11:07:07.289Z,100036.81
2023-11-15T11:09:41.066Z,100035.00
2023-11-15T11:12:10.909Z,100042.44
2023-11-15T11:14:38.080Z,100043.47
2023-11-15T11:17:34.082Z,100038.94
2023-11-15T11:20:01.081Z,100043.03
2023-11-15T11:22:27.809Z,100041.91
2023-11-15T11:25:22.576Z,100040.25
2023-11-15T11:27:55.742Z,100041.09
2023-11-15T11:30:23.026Z,100043.88
2023-11-15T11:33:08.387Z,100040.09
2023-11-15T11:35:35.197Z,100041.69
2023-11-15T11:38:01.960Z,100043.34
2023-11-15T11:40:29.745Z,100041.91
2023-11-15T11:43:13.330Z,100042.81
2023-11-15T11:45:39.814Z,100045.00
2023-11-15T11:48:17.470Z,100048.66
2023-11-15T11:51:02.167Z,100049.63
2023-11-15T11:53:29.050Z,100055.03
2023-11-15T11:55:56.362Z,100048.59
2023-11-15T11:58:24.493Z,100054.81
2023-11-15T12:00:51.302Z,100045.44
2023-11-15T12:03:20.475Z,100043.38
2023-11-15T12:05:47.058Z,100046.16
2023-11-15T12:08:14.335Z,100045.31
2023-11-15T12:10:44.140Z,100044.69
2023-11-15T12:13:11.276Z,100044.63
2023-11-15T12:15:39.286Z,100051.75
2023-11-15T12:18:07.185Z,100042.69
2023-11-15T12:20:36.675Z,100040.47
2023-11-15T12:23:05.041Z,100042.56
2023-11-15T12:25:32.670Z,100038.88
2023-11-15T12:28:02.284Z,100041.34
2023-11-15T12:30:31.222Z,100037.59
2023-11-15T12:32:58.128Z,100042.94
2023-11-15T12:35:25.802Z,100039.94
2023-11-15T12:37:53.961Z,100046.09
2023-11-15T12:40:22.261Z,100046.09
2023-11-15T12:42:52.804Z,100047.97
2023-11-15T12:45:28.925Z,100043.31
2023-11-15T12:48:02.636Z,100043.25
2023-11-15T12:50:29.813Z,100051.13
2023-11-15T12:53:04.820Z,100051.97
2023-11-15T12:55:36.331Z,100051.13
2023-11-15T12:58:03.324Z,100049.38
2023-11-15T13:00:30.669Z,100046.44
2023-11-15T13:02:57.458Z,100041.03
2023-11-15T13:05:25.591Z,100054.44
2023-11-15T13:07:52.191Z,100051.97
2023-11-15T13:10:20.152Z,100057.59
2023-11-15T13:12:46.898Z,100054.91
2023-11-15T13:15:13.721Z,100058.66
2023-11-15T13:17:40.548Z,100058.56
2023-11-15T13:20:08.093Z,100053.97
2023-11-15T13:22:34.628Z,100063.00
2023-11-15T13:25:01.241Z,100060.44
2023-11-15T13:27:33.060Z,100065.63
2023-11-15T13:30:00.434Z,100059.44
2023-11-15T13:32:27.625Z,100060.53
2023-11-15T13:34:55.109Z,100068.19
2023-11-15T13:37:21.715Z,100074.47
2023-11-15T13:39:51.488Z,100072.69
2023-11-15T13:42:18.326Z,100071.00
2023-11-15T13:44:56.085Z,100065.81
2023-11-15T13:47:22.842Z,100070.19
2023-11-15T13:49:49.531Z,100079.81
2023-11-15T13:52:18.447Z,100077.00
2023-11-15T13:54:45.124Z,100086.06
2023-11-15T13:57:12.225Z,100076.13
2023-11-15T13:59:39.150Z,100084.19
2023-11-15T14:02:07.945Z,100102.91
2023-11-15T14:04:34.974Z,100093.06
2023-11-15T14:07:07.830Z,100093.91
2023-11-15T14:09:34.397Z,100096.72
2023-11-15T14:12:01.198Z,100105.69
2023-11-15T14:14:27.840Z,100098.53
2023-11-15T14:16:54.563Z,100102.28
2023-11-15T14:19:22.746Z,100101.63
2023-11-15T14:21:50.297Z,100109.75
2023-11-15T14:24:19.914Z,100110.13
2023-11-15T14:26:46.538Z,100109.97
2023-11-15T14:29:13.191Z,100116.41
2023-11-15T14:31:39.805Z,100112.88
2023-11-15T14:34:08.423Z,100123.75
2023-11-15T14:36:36.312Z,100118.53
2023-11-15T14:39:03.290Z,100119.38
2023-11-15T14:41:29.986Z,100128.34
2023-11-15T14:43:56.654Z,100123.81
2023-11-15T14:46:23.726Z,100132.00
2023-11-15T14:48:52.689Z,100137.63
2023-11-15T14:51:20.597Z,100132.28
2023-11-15T14:53:48.805Z,100141.22
2023-11-15T14:56:16.085Z,100140.19
2023-11-15T14:58:55.243Z,100137.63
2023-11-15T15:01:25.420Z,100138.66
2023-11-15T15:03:53.724Z,100146.66
2023-11-15T15:06:20.405Z,100163.75
2023-11-15T15:08:46.990Z,100160.34
2023-11-15T15:11:15.149Z,100167.72
2023-11-15T15:13:44.345Z,100171.41
2023-11-15T15:16:13.473Z,100175.88
2023-11-15T15:18:45.500Z,100175.34
2023-11-15T15:21:12.078Z,100179.63
2023-11-15T15:23:38.602Z,100185.13
2023-11-15T15:26:05.950Z,100179.09
2023-11-15T15:28:33.786Z,100176.47
2023-11-15T15:31:00.439Z,100189.06
2023-11-15T15:33:27.067Z,100181.03
2023-11-15T15:35:53.654Z,100187.34
2023-11-15T15:38:20.326Z,100198.28
2023-11-15T15:40:46.873Z,100204.59
2023-11-15T15:43:13.647Z,100200.91
2023-11-15T15:45:41.439Z,100206.41
2023-11-15T15:48:10.862Z,100206.75
2023-11-15T15:50:37.430Z,100214.75
2023-11-15T15:53:04.196Z,100220.22
2023-11-15T15:55:31.151Z,100218.44
2023-11-15T15:57:58.046Z,100222.28
2023-11-15T16:00:24.847Z,100226.50
2023-11-15T16:02:52.983Z,100231.09
2023-11-15T16:05:19.700Z,100227.59
2023-11-15T16:07:46.254Z,100229.53
2023-11-15T16:10:13.161Z,100241.13
2023-11-15T16:12:42.139Z,100241.28
2023-11-15T16:15:09.949Z,100239.38
2023-11-15T16:17:36.694Z,100239.38
2023-11-15T16:20:06.285Z,100242.06
2023-11-15T16:22:33.028Z,100251.06
2023-11-15T16:24:59.710Z,100243.06
2023-11-15T16:27:34.099Z,100256.44
2023-11-15T16:30:04.123Z,100252.75
2023-11-15T16:32:30.820Z,100265.31
2023-11-15T16:34:57.910Z,100257.28
2023-11-15T16:37:25.791Z,100263.34
2023-11-15T16:39:53.158Z,100263.34
2023-11-15T16:42:20.364Z,100269.78
2023-11-15T16:44:47.511Z,100266.16
2023-11-15T16:47:15.964Z,100283.09
2023-11-15T16:49:43.014Z,100281.47
2023-11-15T16:52:10.042Z,100272.59
2023-11-15T16:54:38.000Z,100286.03
2023-11-15T16:57:05.150Z,100294.09
2023-11-15T16:59:32.135Z,100288.66
2023-11-15T17:01:59.114Z,100295.88
2023-11-15T17:04:25.698Z,100299.44
2023-11-15T17:06:52.211Z,100297.84
2023-11-15T17:09:18.857Z,100302.38
2023-11-15T17:11:46.851Z,100312.38
2023-11-15T17:14:13.668Z,100314.06
2023-11-15T17:16:40.171Z,100321.22
2023-11-15T17:19:06.777Z,100315.81
2023-11-15T17:21:33.689Z,100318.56
2023-11-15T17:24:00.353Z,100319.38
2023-11-15T17:26:27.012Z,100313.84
2023-11-15T17:28:54.980Z,100320.25
2023-11-15T17:31:24.845Z,100320.25
2023-11-15T17:33:51.682Z,100315.81
2023-11-15T17:36:18.539Z,100328.38
2023-11-15T17:38:45.202Z,100331.13
2023-11-15T17:41:12.161Z,100337.25
2023-11-15T17:43:38.764Z,100334.59
2023-11-15T17:46:07.132Z,100331.75
2023-11-15T17:48:35.367Z,100335.41
2023-11-15T17:51:01.913Z,100339.97
2023-11-15T17:53:28.461Z,100341.69
2023-11-15T17:55:55.203Z,100340.69
2023-11-15T17:58:21.777Z,100342.47
2023-11-15T18:00:48.559Z,100333.59
2023-11-15T18:03:16.975Z,100336.31
2023-11-15T18:05:44.319Z,100337.16
2023-11-15T18:08:10.850Z,100339.78
2023-11-15T18:10:37.891Z,100337.09
2023-11-15T18:13:04.535Z,100340.69
2023-11-15T18:15:31.464Z,100346.09
2023-11-15T18:17:58.225Z,100335.41
2023-11-15T18:20:26.243Z,100342.56
2023-11-15T18:22:53.129Z,100348.81
2023-11-15T18:25:19.615Z,100355.16
2023-11-15T18:27:48.113Z,100348.06
2023-11-15T18:30:15.750Z,100356.91
2023-11-15T18:32:43.136Z,100349.81
2023-11-15T18:35:10.513Z,100344.41
2023-11-15T18:37:38.572Z,100347.22
2023-11-15T18:40:05.924Z,100339.13
2023-11-15T18:42:32.476Z,100332.88
2023-11-15T18:45:00.146Z,100341.94
2023-11-15T18:47:26.942Z,100337.63
2023-11-15T18:49:55.538Z,100343.13
2023-11-15T18:52:22.160Z,100336.88
2023-11-15T18:54:52.552Z,100343.97
2023-11-15T18:57:19.027Z,100338.84
2023-11-15T18:59:45.586Z,100350.44
2023-11-15T19:02:12.156Z,100353.25
2023-11-15T19:04:38.686Z,100341.59
2023-11-15T19:07:05.452Z,100339.75
2023-11-15T19:09:32.058Z,100348.69
2023-11-15T19:12:00.805Z,100346.84
2023-11-15T19:14:28.007Z,100353.16
2023-11-15T19:16:54.504Z,100357.72
2023-11-15T19:19:21.187Z,100338.69
2023-11-15T19:21:47.706Z,100353.09
2023-11-15T19:24:14.544Z,100360.25
2023-11-15T19:26:41.145Z,100361.94
2023-11-15T19:29:08.998Z,100361.09
2023-11-15T19:31:35.613Z,100357.47
2023-11-15T19:34:02.401Z,100350.44
2023-11-15T19:36:29.244Z,100354.84
2023-11-15T19:38:57.973Z,100362.09
2023-11-15T19:41:24.542Z,100361.19
2023-11-15T19:43:51.063Z,100356.69
2023-11-15T19:46:19.741Z,100364.75
2023-11-15T19:48:47.395Z,100359.22
2023-11-15T19:51:14.797Z,100357.53
2023-11-15T19:53:41.443Z,100360.34
2023-11-15T19:56:09.090Z,100345.16
2023-11-15T19:58:35.815Z,100369.31
2023-11-15T20:01:03.803Z,100366.72
2023-11-15T20:03:31.767Z,100363.91
2023-11-15T20:05:58.761Z,100366.59
2023-11-15T20:08:25.440Z,100363.91
2023-11-15T20:10:52.127Z,100370.22
2023-11-15T20:13:19.347Z,100375.59
2023-11-15T20:15:45.914Z,100365.69
2023-11-15T20:18:12.554Z,100371.09
2023-11-15T20:20:40.518Z,100371.16
2023-11-15T20:23:07.162Z,100376.41
2023-11-15T20:25:33.795Z,100371.28
2023-11-15T20:28:00.351Z,100389.91
2023-11-15T20:30:27.024Z,100387.31
2023-11-15T20:32:56.897Z,100396.16
2023-11-15T20:35:23.527Z,100391.81
2023-11-15T20:37:51.617Z,100398.91
2023-11-15T20:40:18.772Z,100400.78
2023-11-15T20:42:45.657Z,100401.72
2023-11-15T20:45:13.650Z,100382.97
2023-11-15T20:47:40.429Z,100383.03
2023-11-15T20:50:08.223Z,100377.69
2023-11-15T20:52:35.016Z,100382.22
2023-11-15T20:55:02.926Z,100383.06
2023-11-15T20:57:29.570Z,100374.09
2023-11-15T20:59:59.866Z,100383.16
2023-11-15T21:02:27.489Z,100379.56
2023-11-15T21:04:55.419Z,100371.69
2023-11-15T21:07:22.118Z,100386.81
2023-11-15T21:09:48.888Z,100374.22
2023-11-15T21:12:16.855Z,100384.00
2023-11-15T21:14:46.823Z,100389.59
2023-11-15T21:17:13.503Z,100387.91
2023-11-15T21:19:40.119Z,100376.28
2023-11-15T21:22:06.636Z,100371.78
2023-11-15T21:24:33.424Z,100372.53
2023-11-15T21:27:00.068Z,100364.66
2023-11-15T21:29:28.286Z,100365.50
2023-11-15T21:31:55.153Z,100364.38
2023-11-15T21:34:21.923Z,100364.47
2023-11-15T21:36:48.557Z,100363.56
2023-11-15T21:39:17.587Z,100361.84
2023-11-15T21:41:44.208Z,100363.56
2023-11-15T21:44:10.786Z,100364.44
2023-11-15T21:46:38.693Z,100367.13
2023-11-15T21:49:05.463Z,100368.91
2023-11-15T21:51:32.149Z,100367.06
2023-11-15T21:54:00.166Z,100351.94
2023-11-15T21:56:27.507Z,100359.84
2023-11-15T21:58:54.737Z,100363.41
2023-11-15T22:01:22.377Z,100364.31
2023-11-15T22:03:50.363Z,100361.66
2023-11-15T22:06:17.336Z,100362.56
2023-11-15T22:08:43.934Z,100360.81
2023-11-15T22:11:10.582Z,100355.47
2023-11-15T22:13:37.209Z,100350.19
2023-11-15T22:16:06.551Z,100351.03
2023-11-15T22:18:33.220Z,100359.88
2023-11-15T22:21:03.773Z,100359.88
2023-11-15T22:23:30.534Z,100357.22
2023-11-15T22:25:57.220Z,100360.72
2023-11-15T22:28:23.826Z,100371.41
2023-11-15T22:30:50.890Z,100360.69
2023-11-15T22:33:17.840Z,100370.44
2023-11-15T22:35:44.455Z,100370.44
2023-11-15T22:38:12.843Z,100374.06
2023-11-15T22:40:39.384Z,100370.44
2023-11-15T22:43:05.977Z,100367.69
2023-11-15T22:45:32.681Z,100370.44
2023-11-15T22:47:59.877Z,100357.06
2023-11-15T22:50:26.652Z,100368.75
2023-11-15T22:52:53.204Z,100377.88
2023-11-15T22:55:21.090Z,100361.72
2023-11-15T22:57:47.903Z,100362.47
2023-11-15T23:00:15.210Z,100372.38
2023-11-15T23:02:41.974Z,100362.63
2023-11-15T23:05:09.109Z,100368.88
2023-11-15T23:07:35.755Z,100366.50
2023-11-15T23:10:02.372Z,100372.72
2023-11-15T23:12:30.249Z,100370.06
2023-11-15T23:14:57.044Z,100358.56
2023-11-15T23:17:23.625Z,100365.72
2023-11-15T23:19:50.566Z,100371.22
2023-11-15T23:22:17.055Z,100362.31
2023-11-15T23:24:43.578Z,100368.53
2023-11-15T23:27:10.157Z,100363.34
2023-11-15T23:29:38.049Z,100366.03
2023-11-15T23:32:05.805Z,100358.94
2023-11-15T23:34:32.314Z,100360.88
2023-11-15T23:36:58.806Z,100364.63
2023-11-15T23:39:25.740Z,100356.59
2023-11-15T23:41:52.354Z,100368.38
2023-11-15T23:44:18.924Z,100364.84
2023-11-15T23:46:49.070Z,100370.34
2023-11-15T23:49:17.864Z,100372.16
2023-11-15T23:51:44.421Z,100365.06
2023-11-15T23:54:11.001Z,100356.22
2023-11-15T23:56:41.425Z,100365.09
2023-11-15T23:59:07.953Z,100362.44
